PLVO2: Washita River nr Pauls Valley, OK

Data processed at Fri Mar 09 2018 23:46


All information presented herein is the property of the government of the United States of America and may be revised or deleted at any time without prior notice.
Dissemination of this information without the expressed written consent of the Public Affairs Office, Tulsa District U.S. Army Corps of Engineers is strictly prohibited.
These data are gathered electronically and, as presented, have not undergone any form of quality control. These data are not guaranteed to be valid or correct.
Go to home page.
Go to station list.

Upstream stations:

Downstream station:
Previous Day
Next Day
Current Day
    
SHEF ID:       PLVO2     Washita River near Pauls Valley
STATION TYPE:  

               PRECIP     STAGE  RIV-FLOW  BAT-LOAD
                   in        ft       cfs      volt
              Ccp-Rev   Ccp-Rev   Ccp-Rev   Ccp-Rev
(US/Central)
03/07 00:00      0.00      5.94       514     12.65
03/07 01:00      0.00      5.93       510     12.57
03/07 02:00      0.00      5.92       506     12.57
03/07 03:00      0.00      5.95       517     12.57
03/07 04:00      0.00      5.90       498     12.49
03/07 05:00      0.00      5.89       494     12.49
03/07 06:00      0.00      5.93       510     12.49
03/07 07:00      0.00      5.93       510     12.41
03/07 08:00      0.00      5.91       502     12.49
03/07 09:00      0.00      5.91       502     12.89
03/07 10:00      0.00      5.92       506     13.21
03/07 11:00      0.00      5.90       498     13.13
03/07 12:00      0.00      5.91       502     13.21
03/07 13:00      0.00      5.89       494     13.13
03/07 14:00      0.00      5.92       506     13.05
03/07 15:00      0.00      5.90       498     13.05
03/07 16:00      0.00      5.91       502     12.97
03/07 17:00      0.00      5.87       487     12.97
03/07 18:00      0.00      5.87       487     12.89
03/07 19:00      0.00      5.90       498     12.81
03/07 20:00      0.00      5.87       487     12.81
03/07 21:00      0.00      5.86       483     12.73
03/07 22:00      0.00      5.87       487     12.73
03/07 23:00      0.00      5.86       483     12.65